In Rescue
 
Open Full Screen Window  High Contrast Mode
Wind Gusting 00 knots
11
April 20, 2024 10:13 AM EDT
Weather Information
Wind Direction
  240 °
Wind Speed
  11 kt (13 mph)
Wind Gust
  00 kt (0 mph)
Altimeter
29.99 in
Visibility
10 SM
Temperature
13° C
55° F
Dewpoint
-01° C
30° F
Humidity
38%
Sky Condition
Clear
VFR

METAR KUNV 201413Z AUTO 24011KT 10SM CLR 13/M01 A2999 RMK AO2 T01251011

FAA Disclaimer: The data displayed is for advisory purposes only and is not to be used for flight planning or operations.